createdAt,value
2022-08-23T00:00:17.888Z,1015.8
2022-08-23T00:05:58.962Z,1015.5
2022-08-23T00:11:39.191Z,1015.5
2022-08-23T00:17:35.310Z,1015.5
2022-08-23T00:23:16.387Z,1015.4
2022-08-23T00:28:56.955Z,1015.5
2022-08-23T00:34:37.397Z,1015.4
2022-08-23T00:40:18.827Z,1015.4
2022-08-23T00:45:59.391Z,1015.2
2022-08-23T00:51:53.776Z,1015.5
2022-08-23T00:57:34.434Z,1015.6
2022-08-23T01:03:19.157Z,1015.6
2022-08-23T01:09:01.087Z,1015.9
2022-08-23T01:14:41.379Z,1015.8
2022-08-23T01:20:32.160Z,1016
2022-08-23T01:26:13.509Z,1016.3
2022-08-23T01:32:02.593Z,1016.4
2022-08-23T01:37:42.783Z,1016.4
2022-08-23T01:43:23.188Z,1016.3
2022-08-23T01:49:08.738Z,1016
2022-08-23T01:54:48.873Z,1015.8
2022-08-23T02:00:29.636Z,1015.8
2022-08-23T02:06:10.354Z,1015.8
2022-08-23T02:11:50.490Z,1015.9
2022-08-23T02:17:31.028Z,1016
2022-08-23T02:23:11.458Z,1016.2
2022-08-23T02:28:51.545Z,1016.3
2022-08-23T02:34:36.663Z,1016.6
2022-08-23T02:40:17.023Z,1016.7
2022-08-23T02:45:57.721Z,1016.7
2022-08-23T02:51:37.835Z,1016.9
2022-08-23T02:57:18.017Z,1016.9
2022-08-23T03:02:58.158Z,1016.8
2022-08-23T03:08:38.531Z,1016.7
2022-08-23T03:14:18.891Z,1016.6
2022-08-23T03:19:58.998Z,1016.6
2022-08-23T03:25:39.215Z,1017
2022-08-23T03:31:19.409Z,1017
2022-08-23T03:36:59.682Z,1017.1
2022-08-23T03:42:40.506Z,1017.4
2022-08-23T03:48:20.906Z,1017.5
2022-08-23T03:54:01.225Z,1017.4
2022-08-23T03:59:41.740Z,1017.3
2022-08-23T04:05:21.964Z,1017.1
2022-08-23T04:11:03.869Z,1017
2022-08-23T04:16:44.990Z,1016.9
2022-08-23T04:22:25.304Z,1016.9
2022-08-23T04:28:05.741Z,1017
2022-08-23T04:33:52.986Z,1017.1
2022-08-23T04:39:42.427Z,1017.1
2022-08-23T04:45:34.477Z,1017.1
2022-08-23T04:51:14.741Z,1017.3
2022-08-23T04:56:55.084Z,1017.3
2022-08-23T05:02:35.345Z,1017.2
2022-08-23T05:08:16.199Z,1017.1
2022-08-23T05:13:56.811Z,1017
2022-08-23T05:19:47.430Z,1016.9
2022-08-23T05:25:31.043Z,1016.8
2022-08-23T05:31:12.086Z,1016.7
2022-08-23T05:36:56.672Z,1016.6
2022-08-23T05:42:37.005Z,1016.7
2022-08-23T05:48:18.623Z,1016.7
2022-08-23T05:53:59.339Z,1016.5
2022-08-23T05:59:39.934Z,1016.2
2022-08-23T06:05:20.325Z,1016
2022-08-23T06:11:01.974Z,1015.5
2022-08-23T06:16:42.584Z,1015.4
2022-08-23T06:22:23.380Z,1015.5
2022-08-23T06:28:03.906Z,1015.5
2022-08-23T06:33:44.711Z,1015.5
2022-08-23T06:39:25.441Z,1015.5
2022-08-23T06:45:05.595Z,1015.5
2022-08-23T06:50:48.351Z,1015.5
2022-08-23T06:56:28.715Z,1015.4
2022-08-23T07:02:09.144Z,1015.5
2022-08-23T07:07:50.480Z,1015.5
2022-08-23T07:13:30.501Z,1015.5
2022-08-23T07:19:11.043Z,1015.5
2022-08-23T07:24:51.183Z,1015.6
2022-08-23T07:30:31.796Z,1015.6
2022-08-23T07:36:12.198Z,1015.6
2022-08-23T07:41:52.992Z,1015.7
2022-08-23T07:47:33.572Z,1015.8
2022-08-23T07:53:38.250Z,1015.9
2022-08-23T07:59:21.164Z,1015.9
2022-08-23T08:05:04.137Z,1015.9
2022-08-23T08:10:44.110Z,1016
2022-08-23T08:16:24.344Z,1016
2022-08-23T08:22:04.925Z,1016
2022-08-23T08:27:48.362Z,1016.1
2022-08-23T08:33:35.631Z,1016.1
2022-08-23T08:39:15.500Z,1016
2022-08-23T08:44:55.698Z,1016
2022-08-23T08:50:36.168Z,1016
2022-08-23T08:56:17.924Z,1016.1
2022-08-23T09:01:58.903Z,1016
2022-08-23T09:07:38.845Z,1016.1
2022-08-23T09:13:20.361Z,1016.1
2022-08-23T09:19:00.608Z,1016.1
2022-08-23T09:24:41.222Z,1016.2
2022-08-23T09:30:23.358Z,1016.1
2022-08-23T09:36:03.798Z,1016.1
2022-08-23T09:41:45.994Z,1016
2022-08-23T10:02:40.819Z,1016
2022-08-23T10:08:43.764Z,1016
2022-08-23T10:14:50.993Z,1015.9
2022-08-23T10:20:31.515Z,1016
2022-08-23T10:41:32.951Z,1015.9
2022-08-23T10:47:13.922Z,1015.9
2022-08-23T10:58:03.043Z,1015.8
2022-08-23T14:47:14.057Z,1015.2
2022-08-23T14:52:53.946Z,1015.2
2022-08-23T14:58:34.173Z,1015.1
2022-08-23T15:04:14.750Z,1015.1
2022-08-23T15:09:55.081Z,1015.2
2022-08-23T15:15:35.143Z,1015.2
2022-08-23T15:21:18.232Z,1015.1
2022-08-23T15:26:58.631Z,1015.1
2022-08-23T15:32:59.432Z,1015.1
2022-08-23T15:38:44.300Z,1015.1
2022-08-23T15:44:24.309Z,1015
2022-08-23T15:50:04.538Z,1015
2022-08-23T15:55:48.046Z,1015
2022-08-23T16:01:28.166Z,1015
2022-08-23T16:07:08.849Z,1015
2022-08-23T16:12:52.079Z,1015
2022-08-23T16:18:32.490Z,1015.1
2022-08-23T16:24:12.732Z,1015
2022-08-23T16:29:54.163Z,1015
2022-08-23T16:35:34.281Z,1015
2022-08-23T16:41:14.514Z,1015.1
2022-08-23T16:46:57.100Z,1015.1
2022-08-23T16:52:40.756Z,1015.1
2022-08-23T16:58:21.084Z,1015.2
2022-08-23T17:04:01.339Z,1015.1
2022-08-23T17:09:41.592Z,1015.1
2022-08-23T17:15:21.618Z,1015.1
2022-08-23T17:21:01.906Z,1015.2
2022-08-23T17:26:42.505Z,1015.3
2022-08-23T17:32:22.705Z,1015.2
2022-08-23T17:38:05.560Z,1015.2
2022-08-23T17:44:06.744Z,1015.3
2022-08-23T17:49:46.815Z,1015.3
2022-08-23T17:55:30.284Z,1015.4
2022-08-23T18:01:11.141Z,1015.5
2022-08-23T18:06:51.798Z,1015.5
2022-08-23T18:12:32.061Z,1015.5
2022-08-23T18:18:12.160Z,1015.6
2022-08-23T18:23:52.203Z,1015.7
2022-08-23T18:29:32.628Z,1015.7
2022-08-23T18:35:20.171Z,1015.7
2022-08-23T18:41:20.400Z,1015.8
2022-08-23T18:47:05.712Z,1015.9
2022-08-23T18:52:46.160Z,1016
2022-08-23T18:58:33.785Z,1016.1
2022-08-23T19:04:17.277Z,1016.1
2022-08-23T19:10:00.115Z,1016.2
2022-08-23T19:15:40.794Z,1016.4
2022-08-23T19:21:23.228Z,1016.4
2022-08-23T19:27:03.340Z,1016.5
2022-08-23T19:32:50.277Z,1016.6
2022-08-23T19:38:35.954Z,1016.6
2022-08-23T19:44:25.131Z,1016.6
2022-08-23T19:50:08.591Z,1016.6
2022-08-23T19:55:53.276Z,1016.8
2022-08-23T20:01:34.041Z,1016.8
2022-08-23T20:12:16.640Z,1016.9
2022-08-23T20:17:56.706Z,1017
2022-08-23T20:23:36.811Z,1017
2022-08-23T20:29:16.869Z,1017.1
2022-08-23T20:34:57.315Z,1017.2
2022-08-23T20:40:40.322Z,1017.4
2022-08-23T20:46:20.964Z,1017.8
2022-08-23T20:52:01.486Z,1018
2022-08-23T20:57:44.503Z,1018
2022-08-23T21:03:25.226Z,1017.9
2022-08-23T21:09:05.887Z,1018.1
2022-08-23T21:14:51.024Z,1018
2022-08-23T21:20:31.351Z,1018.1
2022-08-23T21:26:14.449Z,1018.1
2022-08-23T21:31:54.368Z,1018.3
2022-08-23T21:37:37.459Z,1018.2
2022-08-23T21:43:17.802Z,1018.1
2022-08-23T21:49:03.814Z,1018.1
2022-08-23T21:54:44.380Z,1018
2022-08-23T22:00:28.087Z,1017.9
2022-08-23T22:06:08.259Z,1017.8
2022-08-23T22:11:50.703Z,1017.8
2022-08-23T22:17:31.199Z,1017.9
2022-08-23T22:23:11.395Z,1018
2022-08-23T22:28:51.671Z,1018
2022-08-23T22:34:31.877Z,1018.1
2022-08-23T22:40:13.728Z,1018.4
2022-08-23T22:45:54.753Z,1018.5
2022-08-23T22:51:36.241Z,1019
2022-08-23T22:57:16.299Z,1019.2
2022-08-23T23:02:56.538Z,1019.2
2022-08-23T23:08:36.737Z,1019.3
2022-08-23T23:14:17.193Z,1019.5
2022-08-23T23:19:57.196Z,1019.7
2022-08-23T23:25:37.445Z,1019.7
2022-08-23T23:31:18.157Z,1019.8
2022-08-23T23:36:59.217Z,1019.8
2022-08-23T23:42:39.456Z,1019.9
2022-08-23T23:48:19.673Z,1020
2022-08-23T23:54:01.514Z,1020.1
2022-08-23T23:59:41.805Z,1020.2
